createdAt,value
2022-09-04T00:01:59.530Z,100416.69
2022-09-04T00:04:55.531Z,100427.81
2022-09-04T00:07:54.312Z,100431.13
2022-09-04T00:10:48.760Z,100431.13
2022-09-04T00:13:44.065Z,100427.81
2022-09-04T00:16:37.181Z,100426.19
2022-09-04T00:19:29.665Z,100428.88
2022-09-04T00:22:28.047Z,100433.00
2022-09-04T00:25:21.482Z,100427.22
2022-09-04T00:28:26.930Z,100431.53
2022-09-04T00:31:25.858Z,100429.91
2022-09-04T00:34:23.447Z,100435.66
2022-09-04T00:37:13.896Z,100432.75
2022-09-04T00:40:05.600Z,100428.25
2022-09-04T00:43:20.265Z,100430.94
2022-09-04T00:46:25.338Z,100431.53
2022-09-04T00:49:30.089Z,100436.06
2022-09-04T00:52:36.777Z,100431.13
2022-09-04T00:55:40.466Z,100439.16
2022-09-04T00:58:35.815Z,100436.91
2022-09-04T01:01:27.938Z,100442.25
2022-09-04T01:04:25.267Z,100446.16
2022-09-04T01:07:26.779Z,100438.94
2022-09-04T01:10:29.722Z,100445.53
2022-09-04T01:13:25.431Z,100442.25
2022-09-04T01:16:19.107Z,100451.94
2022-09-04T01:19:22.741Z,100449.69
2022-09-04T01:22:25.675Z,100455.03
2022-09-04T01:25:23.209Z,100453.78
2022-09-04T01:28:18.656Z,100461.00
2022-09-04T01:31:18.448Z,100459.34
2022-09-04T01:34:19.242Z,100457.72
2022-09-04T01:37:18.423Z,100462.03
2022-09-04T01:40:35.623Z,100455.03
2022-09-04T01:43:26.429Z,100456.69
2022-09-04T01:46:25.998Z,100455.84
2022-09-04T01:49:21.807Z,100459.34
2022-09-04T01:52:27.940Z,100458.72
2022-09-04T01:55:21.575Z,100459.53
2022-09-04T01:58:18.369Z,100473.97
2022-09-04T02:01:15.797Z,100469.03
2022-09-04T02:04:18.290Z,100472.75
2022-09-04T02:07:15.396Z,100469.03
2022-09-04T02:10:12.861Z,100469.03
2022-09-04T02:13:12.268Z,100463.06
2022-09-04T02:16:11.326Z,100473.97
2022-09-04T02:19:04.991Z,100468.81
2022-09-04T02:22:01.031Z,100470.69
2022-09-04T02:24:53.158Z,100473.97
2022-09-04T02:27:50.506Z,100470.69
2022-09-04T02:30:43.699Z,100470.69
2022-09-04T02:33:40.329Z,100472.94
2022-09-04T02:36:33.846Z,100480.56
2022-09-04T02:39:31.138Z,100486.94
2022-09-04T02:42:25.730Z,100485.50
2022-09-04T02:45:22.685Z,100484.69
2022-09-04T02:48:16.098Z,100485.50
2022-09-04T02:51:21.127Z,100491.69
2022-09-04T02:54:14.157Z,100494.59
2022-09-04T02:57:09.253Z,100491.69
2022-09-04T03:00:07.095Z,100497.03
2022-09-04T03:03:02.469Z,100500.75
2022-09-04T03:05:55.239Z,100499.72
2022-09-04T03:08:49.911Z,100498.69
2022-09-04T03:11:46.858Z,100495.38
2022-09-04T03:14:39.911Z,100495.38
2022-09-04T03:17:34.870Z,100499.09
2022-09-04T03:20:25.336Z,100499.72
2022-09-04T03:23:19.103Z,100504.03
2022-09-04T03:26:18.045Z,100506.94
2022-09-04T03:29:12.078Z,100503.63
2022-09-04T03:32:15.964Z,100498.06
2022-09-04T03:35:09.381Z,100502.81
2022-09-04T03:38:10.559Z,100502.38
2022-09-04T03:41:04.366Z,100502.38
2022-09-04T03:44:01.927Z,100495.38
2022-09-04T03:46:58.885Z,100501.16
2022-09-04T03:49:55.218Z,100503.63
2022-09-04T03:52:50.109Z,100503.84
2022-09-04T03:56:16.331Z,100506.94
2022-09-04T03:59:08.318Z,100516.81
2022-09-04T04:02:02.503Z,100517.25
2022-09-04T04:05:15.477Z,100515.59
2022-09-04T04:08:20.220Z,100520.09
2022-09-04T04:11:24.240Z,100519.91
2022-09-04T04:14:30.907Z,100526.31
2022-09-04T04:17:31.457Z,100524.66
2022-09-04T04:20:27.581Z,100531.03
2022-09-04T04:23:39.562Z,100535.38
2022-09-04T04:26:40.541Z,100532.84
2022-09-04T04:29:51.553Z,100530.38
2022-09-04T04:33:13.976Z,100537.81
2022-09-04T04:36:10.133Z,100538.22
2022-09-04T04:39:15.813Z,100537.00
2022-09-04T04:42:12.983Z,100537.00
2022-09-04T04:45:40.863Z,100538.03
2022-09-04T04:49:08.051Z,100540.72
2022-09-04T04:52:25.676Z,100543.56
2022-09-04T04:55:21.387Z,100545.63
2022-09-04T04:58:26.115Z,100549.53
2022-09-04T05:01:25.596Z,100559.03
2022-09-04T05:04:23.234Z,100566.03
2022-09-04T05:07:20.483Z,100561.91
2022-09-04T05:10:17.835Z,100560.06
2022-09-04T05:13:13.467Z,100568.28
2022-09-04T05:16:09.265Z,100569.50
2022-09-04T05:19:03.085Z,100565.19
2022-09-04T05:21:55.397Z,100579.41
2022-09-04T05:24:51.906Z,100583.94
2022-09-04T05:27:50.449Z,100587.63
2022-09-04T05:30:45.535Z,100583.94
2022-09-04T05:33:40.263Z,100589.94
2022-09-04T05:36:36.632Z,100590.94
2022-09-04T05:39:30.673Z,100595.28
2022-09-04T05:42:40.667Z,100604.13
2022-09-04T05:45:39.027Z,100597.97
2022-09-04T05:48:31.772Z,100607.00
2022-09-04T05:51:46.999Z,100618.34
2022-09-04T05:54:48.329Z,100630.09
2022-09-04T05:57:46.216Z,100630.91
2022-09-04T06:00:42.552Z,100631.75
2022-09-04T06:03:48.785Z,100630.09
2022-09-04T06:06:41.941Z,100633.38
2022-09-04T06:09:41.701Z,100632.56
2022-09-04T06:12:48.428Z,100636.88
2022-09-04T06:15:46.712Z,100644.72
2022-09-04T06:18:51.145Z,100635.66
2022-09-04T06:22:15.801Z,100647.81
2022-09-04T06:25:22.394Z,100657.69
2022-09-04T06:28:25.453Z,100654.81
2022-09-04T06:31:34.030Z,100660.38
2022-09-04T06:34:33.582Z,100672.09
2022-09-04T06:37:31.593Z,100680.75
2022-09-04T06:40:31.909Z,100680.56
2022-09-04T06:43:29.695Z,100676.66
2022-09-04T06:46:26.857Z,100674.63
2022-09-04T06:49:19.137Z,100675.44
2022-09-04T06:52:16.193Z,100681.41
2022-09-04T06:55:11.747Z,100678.97
2022-09-04T06:58:15.674Z,100682.47
2022-09-04T07:01:08.886Z,100684.94
2022-09-04T07:04:07.968Z,100691.53
2022-09-04T07:07:06.930Z,100692.38
2022-09-04T07:10:01.485Z,100696.88
2022-09-04T07:13:36.962Z,100698.53
2022-09-04T07:16:41.212Z,100698.75
2022-09-04T07:19:44.194Z,100696.50
2022-09-04T07:22:47.955Z,100700.81
2022-09-04T07:25:42.655Z,100699.78
2022-09-04T07:28:40.324Z,100698.53
2022-09-04T07:31:33.148Z,100694.03
2022-09-04T07:34:25.829Z,100702.88
2022-09-04T07:37:25.034Z,100707.41
2022-09-04T07:40:16.829Z,100704.72
2022-09-04T07:43:09.963Z,100713.38
2022-09-04T07:46:05.384Z,100707.63
2022-09-04T07:48:56.930Z,100707.84
2022-09-04T07:51:49.993Z,100711.31
2022-09-04T07:54:53.378Z,100705.97
2022-09-04T07:58:24.500Z,100709.91
2022-09-04T08:01:38.192Z,100719.97
2022-09-04T08:04:56.613Z,100716.91
2022-09-04T08:08:07.204Z,100725.56
2022-09-04T08:11:09.062Z,100722.88
2022-09-04T08:14:22.201Z,100724.94
2022-09-04T08:17:37.180Z,100721.25
2022-09-04T08:20:38.557Z,100731.13
2022-09-04T08:23:46.294Z,100739.38
2022-09-04T08:26:40.403Z,100736.91
2022-09-04T08:29:40.608Z,100735.44
2022-09-04T08:32:51.931Z,100743.50
2022-09-04T08:35:51.802Z,100744.53
2022-09-04T08:38:57.156Z,100742.47
2022-09-04T08:42:17.542Z,100750.31
2022-09-04T08:45:30.321Z,100740.44
2022-09-04T08:48:59.239Z,100744.75
2022-09-04T08:52:24.018Z,100744.75
2022-09-04T08:55:57.366Z,100745.38
2022-09-04T08:59:12.264Z,100750.94
2022-09-04T09:02:27.314Z,100751.53
2022-09-04T09:05:30.547Z,100752.19
2022-09-04T09:09:01.672Z,100749.91
2022-09-04T09:12:24.017Z,100748.88
2022-09-04T09:15:42.193Z,100746.41
2022-09-04T09:18:40.485Z,100740.84
2022-09-04T09:21:44.252Z,100748.91
2022-09-04T09:24:55.014Z,100742.69
2022-09-04T09:28:26.622Z,100745.56
2022-09-04T09:31:49.434Z,100743.13
2022-09-04T09:35:23.123Z,100748.94
2022-09-04T09:38:34.837Z,100741.09
2022-09-04T09:41:59.551Z,100746.44
2022-09-04T09:45:24.267Z,100738.22
2022-09-04T09:48:36.638Z,100731.41
2022-09-04T09:52:02.629Z,100737.38
2022-09-04T09:55:20.024Z,100740.25
2022-09-04T09:58:47.425Z,100737.34
2022-09-04T10:01:50.657Z,100736.31
2022-09-04T10:05:12.586Z,100734.06
2022-09-04T10:08:35.572Z,100728.69
2022-09-04T10:11:45.892Z,100733.44
2022-09-04T10:15:16.567Z,100725.41
2022-09-04T10:18:32.928Z,100719.00
2022-09-04T10:21:57.165Z,100727.66
2022-09-04T10:25:31.103Z,100720.81
2022-09-04T10:28:45.323Z,100716.31
2022-09-04T10:31:48.239Z,100718.78
2022-09-04T10:34:54.386Z,100725.38
2022-09-04T10:37:58.291Z,100730.75
2022-09-04T10:40:56.664Z,100718.56
2022-09-04T10:44:08.739Z,100721.25
2022-09-04T10:47:04.532Z,100724.53
2022-09-04T10:50:18.790Z,100720.63
2022-09-04T10:53:21.178Z,100717.94
2022-09-04T10:56:19.671Z,100726.59
2022-09-04T10:59:25.081Z,100723.28
2022-09-04T11:02:33.455Z,100727.81
2022-09-04T11:05:42.261Z,100725.75
2022-09-04T11:08:44.802Z,100725.75
2022-09-04T11:11:56.718Z,100729.06
2022-09-04T11:14:58.572Z,100716.69
2022-09-04T11:18:13.258Z,100729.06
2022-09-04T11:21:22.796Z,100728.63
2022-09-04T11:24:35.268Z,100726.78
2022-09-04T11:27:39.983Z,100734.00
2022-09-04T11:30:39.981Z,100738.34
2022-09-04T11:34:19.115Z,100737.28
2022-09-04T11:37:49.205Z,100730.09
2022-09-04T11:41:16.852Z,100738.16
2022-09-04T11:44:46.722Z,100736.50
2022-09-04T11:48:02.552Z,100726.19
2022-09-04T11:51:05.610Z,100735.28
2022-09-04T11:54:24.572Z,100738.97
2022-09-04T11:57:18.365Z,100735.69
2022-09-04T12:00:11.476Z,100737.75
2022-09-04T12:03:27.278Z,100736.09
2022-09-04T12:06:29.328Z,100737.75
2022-09-04T12:09:47.818Z,100748.06
2022-09-04T12:13:07.627Z,100746.84
2022-09-04T12:16:47.237Z,100742.31
2022-09-04T12:19:50.634Z,100745.19
2022-09-04T12:23:10.104Z,100736.53
2022-09-04T12:26:23.112Z,100743.53
2022-09-04T12:29:51.516Z,100740.22
2022-09-04T12:33:12.177Z,100735.69
2022-09-04T12:36:38.854Z,100740.44
2022-09-04T12:39:54.116Z,100735.91
2022-09-04T12:42:47.626Z,100735.28
2022-09-04T12:45:42.065Z,100735.91
2022-09-04T12:48:37.562Z,100727.84
2022-09-04T12:51:26.577Z,100735.06
2022-09-04T12:54:23.195Z,100737.31
2022-09-04T12:57:22.507Z,100738.34
2022-09-04T13:00:12.420Z,100740.63
2022-09-04T13:03:10.459Z,100733.41
2022-09-04T13:06:17.842Z,100739.97
2022-09-04T13:09:16.440Z,100743.94
2022-09-04T13:12:17.834Z,100741.00
2022-09-04T13:15:21.848Z,100738.34
2022-09-04T13:18:21.293Z,100730.69
2022-09-04T13:21:16.505Z,100734.84
2022-09-04T13:24:17.250Z,100738.16
2022-09-04T13:27:17.419Z,100731.53
2022-09-04T13:30:08.501Z,100735.66
2022-09-04T13:33:18.534Z,100743.91
2022-09-04T13:36:19.238Z,100743.88
2022-09-04T13:39:27.877Z,100738.94
2022-09-04T13:42:39.619Z,100744.69
2022-09-04T13:45:34.473Z,100741.81
2022-09-04T13:48:34.561Z,100738.94
2022-09-04T13:51:29.784Z,100731.47
2022-09-04T13:54:19.982Z,100739.53
2022-09-04T13:57:12.145Z,100730.88
2022-09-04T14:00:04.252Z,100740.56
2022-09-04T14:02:55.924Z,100740.13
2022-09-04T14:05:44.540Z,100739.72
2022-09-04T14:08:34.728Z,100742.00
2022-09-04T14:11:42.473Z,100740.97
2022-09-04T14:14:50.237Z,100740.53
2022-09-04T14:17:49.525Z,100745.47
2022-09-04T14:20:41.432Z,100745.47
2022-09-04T14:23:40.692Z,100738.00
2022-09-04T14:26:36.265Z,100732.63
2022-09-04T14:29:32.478Z,100736.97
2022-09-04T14:32:24.512Z,100739.25
2022-09-04T14:35:20.967Z,100743.16
2022-09-04T14:38:36.388Z,100743.75
2022-09-04T14:41:36.135Z,100749.13
2022-09-04T14:44:35.730Z,100743.13
2022-09-04T14:47:32.888Z,100741.28
2022-09-04T14:50:28.494Z,100742.91
2022-09-04T14:53:23.192Z,100748.28
2022-09-04T14:56:25.223Z,100758.19
2022-09-04T14:59:19.756Z,100753.66
2022-09-04T15:02:25.545Z,100755.50
2022-09-04T15:05:23.064Z,100761.31
2022-09-04T15:08:13.029Z,100769.38
2022-09-04T15:11:04.264Z,100772.22
2022-09-04T15:13:53.852Z,100764.41
2022-09-04T15:16:49.308Z,100767.28
2022-09-04T15:19:47.465Z,100768.94
2022-09-04T15:22:41.876Z,100761.88
2022-09-04T15:25:58.314Z,100770.16
2022-09-04T15:28:50.293Z,100765.66
2022-09-04T15:31:45.523Z,100767.72
2022-09-04T15:34:34.714Z,100762.75
2022-09-04T15:37:28.257Z,100767.72
2022-09-04T15:40:24.774Z,100769.78
2022-09-04T15:43:19.097Z,100766.44
2022-09-04T15:46:10.834Z,100774.75
2022-09-04T15:49:12.799Z,100769.81
2022-09-04T15:52:14.130Z,100772.69
2022-09-04T15:55:11.876Z,100768.16
2022-09-04T15:58:05.717Z,100766.88
2022-09-04T16:01:09.716Z,100776.41
2022-09-04T16:04:07.327Z,100776.63
2022-09-04T16:06:59.097Z,100783.03
2022-09-04T16:09:53.101Z,100784.69
2022-09-04T16:12:50.804Z,100782.84
2022-09-04T16:15:42.672Z,100793.78
2022-09-04T16:18:44.809Z,100800.81
2022-09-04T16:21:41.285Z,100797.50
2022-09-04T16:24:32.041Z,100800.41
2022-09-04T16:27:24.365Z,100802.06
2022-09-04T16:30:27.288Z,100804.13
2022-09-04T16:33:28.203Z,100799.59
2022-09-04T16:36:20.286Z,100797.56
2022-09-04T16:39:14.269Z,100795.50
2022-09-04T16:42:13.797Z,100800.06
2022-09-04T16:45:08.472Z,100795.09
2022-09-04T16:48:00.433Z,100799.41
2022-09-04T16:51:09.881Z,100793.66
2022-09-04T16:54:19.158Z,100806.06
2022-09-04T16:57:13.994Z,100815.75
2022-09-04T17:00:08.571Z,100813.25
2022-09-04T17:03:00.350Z,100816.16
2022-09-04T17:05:51.379Z,100818.03
2022-09-04T17:08:43.785Z,100818.03
2022-09-04T17:11:39.775Z,100815.16
2022-09-04T17:14:32.890Z,100821.94
2022-09-04T17:17:31.457Z,100824.88
2022-09-04T17:20:29.211Z,100820.31
2022-09-04T17:28:59.007Z,100826.50
2022-09-04T17:29:11.749Z,100833.91
2022-09-04T17:30:03.622Z,100837.00
2022-09-04T17:38:26.924Z,100830.22
2022-09-04T17:40:46.674Z,100828.13
2022-09-04T17:40:55.713Z,100838.88
2022-09-04T17:42:37.290Z,100846.69
2022-09-04T17:45:34.524Z,100850.41
2022-09-04T17:48:25.300Z,100850.63
2022-09-04T17:51:18.558Z,100854.53
2022-09-04T17:54:13.435Z,100849.38
2022-09-04T17:57:04.666Z,100857.44
2022-09-04T18:00:02.479Z,100867.53
2022-09-04T18:02:56.490Z,100861.56
2022-09-04T18:05:53.170Z,100870.44
2022-09-04T18:08:51.413Z,100872.72
2022-09-04T18:12:00.622Z,100869.81
2022-09-04T18:15:16.492Z,100877.06
2022-09-04T18:18:21.360Z,100877.66
2022-09-04T18:21:18.443Z,100881.38
2022-09-04T18:24:09.054Z,100885.09
2022-09-04T18:27:02.838Z,100890.47
2022-09-04T18:36:33.669Z,100902.22
2022-09-04T18:37:25.135Z,100905.94
2022-09-04T18:37:26.391Z,100904.91
2022-09-04T18:39:44.611Z,100904.31
2022-09-04T18:50:22.853Z,100905.31
2022-09-04T18:50:38.513Z,100910.28
2022-09-04T18:50:45.515Z,100921.00
2022-09-04T18:52:16.367Z,100921.81
2022-09-04T18:55:14.367Z,100921.19
2022-09-04T18:58:28.271Z,100926.56
2022-09-04T19:01:27.417Z,100929.25
2022-09-04T19:04:47.655Z,100932.97
2022-09-04T19:07:39.590Z,100934.59
2022-09-04T19:10:29.827Z,100928.41
2022-09-04T19:13:25.215Z,100930.91
2022-09-04T19:16:18.641Z,100933.38
2022-09-04T19:19:17.227Z,100933.78
2022-09-04T19:22:12.352Z,100936.25
2022-09-04T19:25:04.866Z,100933.78
2022-09-04T19:27:56.966Z,100932.97
2022-09-04T19:30:52.101Z,100942.47
2022-09-04T19:33:44.920Z,100946.13
2022-09-04T19:36:40.301Z,100953.38
2022-09-04T19:45:55.414Z,100954.00
2022-09-04T19:46:06.480Z,100949.66
2022-09-04T19:46:25.997Z,100955.44
2022-09-04T19:51:54.101Z,100955.22
2022-09-04T19:53:35.615Z,100958.75
2022-09-04T19:55:45.175Z,100959.97
2022-09-04T19:58:44.000Z,100960.38
2022-09-04T20:01:42.555Z,100963.06
2022-09-04T20:04:37.224Z,100956.84
2022-09-04T20:07:41.483Z,100960.38
2022-09-04T20:10:37.300Z,100964.72
2022-09-04T20:13:28.023Z,100965.94
2022-09-04T20:16:21.690Z,100963.06
2022-09-04T20:19:27.959Z,100964.31
2022-09-04T20:22:33.923Z,100965.75
2022-09-04T20:25:41.411Z,100968.63
2022-09-04T20:28:37.787Z,100974.63
2022-09-04T20:31:54.478Z,100972.56
2022-09-04T20:34:49.496Z,100977.09
2022-09-04T20:37:46.114Z,100972.56
2022-09-04T20:40:38.797Z,100970.06
2022-09-04T20:43:32.858Z,100981.22
2022-09-04T20:52:43.257Z,100991.72
2022-09-04T20:52:55.064Z,100983.28
2022-09-04T20:53:10.574Z,100976.25
2022-09-04T20:56:10.733Z,100981.63
2022-09-04T21:03:09.574Z,100979.13
2022-09-04T21:03:18.530Z,100987.19
2022-09-04T21:06:07.631Z,100982.00
2022-09-04T21:09:06.357Z,100986.16
2022-09-04T21:11:56.873Z,100988.63
2022-09-04T21:14:47.927Z,100990.06
2022-09-04T21:18:12.131Z,101000.38
2022-09-04T21:21:22.210Z,100993.16
2022-09-04T21:24:33.761Z,101006.75
2022-09-04T21:27:55.525Z,101005.09
2022-09-04T21:31:08.910Z,101000.56
2022-09-04T21:34:12.445Z,101008.00
2022-09-04T21:37:06.817Z,101002.63
2022-09-04T21:40:30.978Z,101008.81
2022-09-04T21:43:58.030Z,101016.03
2022-09-04T21:46:57.992Z,101006.34
2022-09-04T21:50:25.326Z,101007.78
2022-09-04T21:53:41.021Z,101011.47
2022-09-04T22:02:26.785Z,101005.50
2022-09-04T22:02:47.934Z,101013.72
2022-09-04T22:03:35.916Z,101010.44
2022-09-04T22:07:15.095Z,101021.16
2022-09-04T22:13:30.627Z,101016.19
2022-09-04T22:13:34.731Z,101017.03
2022-09-04T22:16:58.300Z,101021.56
2022-09-04T22:20:03.931Z,101014.13
2022-09-04T22:23:20.113Z,101023.84
2022-09-04T22:26:28.932Z,101019.72
2022-09-04T22:29:39.894Z,101017.44
2022-09-04T22:32:58.568Z,101020.34
2022-09-04T22:36:04.150Z,101018.47
2022-09-04T22:39:20.968Z,101015.78
2022-09-04T22:42:50.818Z,101017.22
2022-09-04T22:46:09.362Z,101011.88
2022-09-04T22:49:25.631Z,101011.88
2022-09-04T22:52:53.878Z,101015.56
2022-09-04T22:56:23.117Z,101012.50
2022-09-04T22:59:26.854Z,101011.22
2022-09-04T23:07:54.765Z,101021.75
2022-09-04T23:13:44.859Z,101017.59
2022-09-04T23:14:05.141Z,101013.28
2022-09-04T23:17:11.642Z,101018.63
2022-09-04T23:24:37.785Z,101011.41
2022-09-04T23:26:58.403Z,101013.28
2022-09-04T23:27:36.556Z,101010.78
2022-09-04T23:30:27.684Z,101023.63
2022-09-04T23:33:44.312Z,101013.88
2022-09-04T23:37:04.203Z,101017.59
2022-09-04T23:40:28.739Z,101017.41
2022-09-04T23:43:52.848Z,101011.22
2022-09-04T23:46:56.492Z,101016.56
2022-09-04T23:50:00.875Z,101017.16
2022-09-04T23:53:00.036Z,101028.06
2022-09-04T23:55:58.578Z,101024.19
2022-09-04T23:59:18.964Z,101026.03
